Joubert, South Dakota
Current Conditions -  °F | °C
As of 11:53 AM on Thursday 27 Nov 2014 (Local Time) from KMHE Reporting Station
Overcast Overcast  
Wind Chill: -5°   Ceiling: 3200
Heat Index: 12°   Visibility: 10mi
Dew Point:   Wind: 16mph
Humidity: 61%   Direction: 130°SE
Pressure: 30.39"   Gusts: NA
Location:  43.4292°N, 98.645°W
Report Text: KMHE 271753Z AUTO 13014KT 10SM OVC032 M11/M17 A3039 RMK AO2 SLP321 T11111172 11111 21178 58026
Loading
Personal Weather Stations






























Interactive Weather Map New forecast layout! Learn more

10-Day Weather Forecast

Advertisements
Track Severe Weather on mobile